sensor_id;sensor_type;location;lat;lon;timestamp;temperature;humidity
11132;DHT22;5620;53.570;9.718;2023-04-23T00:01:57;16.50;99.90
11132;DHT22;5620;53.570;9.718;2023-04-23T00:04:25;16.50;99.90
11132;DHT22;5620;53.570;9.718;2023-04-23T00:06:55;16.50;99.90
11132;DHT22;5620;53.570;9.718;2023-04-23T00:09:22;16.50;99.90
11132;DHT22;5620;53.570;9.718;2023-04-23T00:11:49;16.50;99.90
11132;DHT22;5620;53.570;9.718;2023-04-23T00:14:17;16.50;99.90
11132;DHT22;5620;53.570;9.718;2023-04-23T00:16:49;16.50;99.90
11132;DHT22;5620;53.570;9.718;2023-04-23T00:19:18;16.40;99.90
11132;DHT22;5620;53.570;9.718;2023-04-23T00:21:45;16.30;99.90
11132;DHT22;5620;53.570;9.718;2023-04-23T00:24:12;16.20;99.90
11132;DHT22;5620;53.570;9.718;2023-04-23T00:26:40;16.20;99.90
11132;DHT22;5620;53.570;9.718;2023-04-23T00:29:05;16.20;99.90
11132;DHT22;5620;53.570;9.718;2023-04-23T00:31:32;16.10;99.90
11132;DHT22;5620;53.570;9.718;2023-04-23T00:33:59;16.00;99.90
11132;DHT22;5620;53.570;9.718;2023-04-23T00:36:25;16.00;99.90
11132;DHT22;5620;53.570;9.718;2023-04-23T00:38:50;15.90;1.00
11132;DHT22;5620;53.570;9.718;2023-04-23T00:41:16;15.80;1.00
11132;DHT22;5620;53.570;9.718;2023-04-23T00:43:43;15.70;1.00
11132;DHT22;5620;53.570;9.718;2023-04-23T00:46:20;15.60;1.00
11132;DHT22;5620;53.570;9.718;2023-04-23T00:48:48;15.50;1.00
11132;DHT22;5620;53.570;9.718;2023-04-23T00:51:24;15.40;1.00
11132;DHT22;5620;53.570;9.718;2023-04-23T00:53:50;15.40;1.00
11132;DHT22;5620;53.570;9.718;2023-04-23T00:56:17;15.30;64.40
11132;DHT22;5620;53.570;9.718;2023-04-23T00:58:44;15.40;99.90
11132;DHT22;5620;53.570;9.718;2023-04-23T01:01:12;15.40;99.90
11132;DHT22;5620;53.570;9.718;2023-04-23T01:03:40;15.40;99.90
11132;DHT22;5620;53.570;9.718;2023-04-23T01:06:08;15.40;99.90
11132;DHT22;5620;53.570;9.718;2023-04-23T01:08:34;15.50;99.90
11132;DHT22;5620;53.570;9.718;2023-04-23T01:11:03;15.60;99.90
11132;DHT22;5620;53.570;9.718;2023-04-23T01:13:31;15.60;99.90
11132;DHT22;5620;53.570;9.718;2023-04-23T01:15:58;15.70;99.90
11132;DHT22;5620;53.570;9.718;2023-04-23T01:18:24;15.70;99.90
11132;DHT22;5620;53.570;9.718;2023-04-23T01:20:54;15.70;99.90
11132;DHT22;5620;53.570;9.718;2023-04-23T01:23:20;15.70;99.90
11132;DHT22;5620;53.570;9.718;2023-04-23T01:25:47;15.70;99.90
11132;DHT22;5620;53.570;9.718;2023-04-23T01:28:13;15.70;99.90
11132;DHT22;5620;53.570;9.718;2023-04-23T01:30:42;15.60;99.90
11132;DHT22;5620;53.570;9.718;2023-04-23T01:33:10;15.00;1.00
11132;DHT22;5620;53.570;9.718;2023-04-23T01:35:35;14.40;99.90
11132;DHT22;5620;53.570;9.718;2023-04-23T01:38:02;14.00;1.00
11132;DHT22;5620;53.570;9.718;2023-04-23T01:40:32;13.60;99.90
11132;DHT22;5620;53.570;9.718;2023-04-23T01:43:00;13.30;1.00
11132;DHT22;5620;53.570;9.718;2023-04-23T01:45:28;13.10;99.90
11132;DHT22;5620;53.570;9.718;2023-04-23T01:47:58;12.90;42.80
11132;DHT22;5620;53.570;9.718;2023-04-23T01:50:25;12.80;99.90
11132;DHT22;5620;53.570;9.718;2023-04-23T01:52:51;12.60;1.00
11132;DHT22;5620;53.570;9.718;2023-04-23T01:55:18;12.50;1.00
11132;DHT22;5620;53.570;9.718;2023-04-23T01:57:45;12.40;39.90
11132;DHT22;5620;53.570;9.718;2023-04-23T02:00:14;12.30;86.80
11132;DHT22;5620;53.570;9.718;2023-04-23T02:02:41;12.20;99.90
11132;DHT22;5620;53.570;9.718;2023-04-23T02:05:12;12.20;99.90
11132;DHT22;5620;53.570;9.718;2023-04-23T02:07:39;12.20;99.30
11132;DHT22;5620;53.570;9.718;2023-04-23T02:10:06;12.00;99.90
11132;DHT22;5620;53.570;9.718;2023-04-23T02:12:35;11.80;99.90
11132;DHT22;5620;53.570;9.718;2023-04-23T02:15:01;11.70;2.50
11132;DHT22;5620;53.570;9.718;2023-04-23T02:17:28;11.70;21.90
11132;DHT22;5620;53.570;9.718;2023-04-23T02:19:55;11.70;93.40
11132;DHT22;5620;53.570;9.718;2023-04-23T02:22:22;11.80;1.00
11132;DHT22;5620;53.570;9.718;2023-04-23T02:24:49;11.80;99.90
11132;DHT22;5620;53.570;9.718;2023-04-23T02:27:16;11.80;58.30
11132;DHT22;5620;53.570;9.718;2023-04-23T02:29:43;11.80;1.00
11132;DHT22;5620;53.570;9.718;2023-04-23T02:32:10;11.90;1.00
11132;DHT22;5620;53.570;9.718;2023-04-23T02:34:39;11.80;1.00
11132;DHT22;5620;53.570;9.718;2023-04-23T02:37:04;11.80;99.90
11132;DHT22;5620;53.570;9.718;2023-04-23T02:39:32;11.80;99.90
11132;DHT22;5620;53.570;9.718;2023-04-23T02:41:59;11.80;99.90
11132;DHT22;5620;53.570;9.718;2023-04-23T02:44:26;11.70;99.90
11132;DHT22;5620;53.570;9.718;2023-04-23T02:46:54;11.70;99.90
11132;DHT22;5620;53.570;9.718;2023-04-23T02:49:19;11.70;99.90
11132;DHT22;5620;53.570;9.718;2023-04-23T02:51:46;11.70;99.90
11132;DHT22;5620;53.570;9.718;2023-04-23T02:54:13;11.70;99.90
11132;DHT22;5620;53.570;9.718;2023-04-23T02:56:39;11.70;99.90
11132;DHT22;5620;53.570;9.718;2023-04-23T02:59:05;11.70;99.90
11132;DHT22;5620;53.570;9.718;2023-04-23T03:01:35;11.70;79.10
11132;DHT22;5620;53.570;9.718;2023-04-23T03:04:03;11.60;24.90
11132;DHT22;5620;53.570;9.718;2023-04-23T03:06:30;11.60;43.20
11132;DHT22;5620;53.570;9.718;2023-04-23T03:08:57;11.60;1.00
11132;DHT22;5620;53.570;9.718;2023-04-23T03:11:22;11.60;1.00
11132;DHT22;5620;53.570;9.718;2023-04-23T03:13:49;11.50;1.00
11132;DHT22;5620;53.570;9.718;2023-04-23T03:16:16;11.50;1.00
11132;DHT22;5620;53.570;9.718;2023-04-23T03:18:43;11.40;1.00
11132;DHT22;5620;53.570;9.718;2023-04-23T03:21:10;11.30;1.00
11132;DHT22;5620;53.570;9.718;2023-04-23T03:23:35;11.30;1.00
11132;DHT22;5620;53.570;9.718;2023-04-23T03:26:01;11.20;26.20
11132;DHT22;5620;53.570;9.718;2023-04-23T03:28:29;11.20;99.90
11132;DHT22;5620;53.570;9.718;2023-04-23T03:30:57;11.20;66.90
11132;DHT22;5620;53.570;9.718;2023-04-23T03:33:23;11.20;51.10
11132;DHT22;5620;53.570;9.718;2023-04-23T03:35:50;11.20;79.90
11132;DHT22;5620;53.570;9.718;2023-04-23T03:38:17;11.30;1.00
11132;DHT22;5620;53.570;9.718;2023-04-23T03:40:43;11.30;3.20
11132;DHT22;5620;53.570;9.718;2023-04-23T03:43:11;11.30;1.00
11132;DHT22;5620;53.570;9.718;2023-04-23T03:45:40;11.30;1.00
11132;DHT22;5620;53.570;9.718;2023-04-23T03:48:08;11.30;1.00
11132;DHT22;5620;53.570;9.718;2023-04-23T03:50:36;11.20;99.90
11132;DHT22;5620;53.570;9.718;2023-04-23T03:53:01;11.20;99.90
11132;DHT22;5620;53.570;9.718;2023-04-23T03:55:27;11.10;1.00
11132;DHT22;5620;53.570;9.718;2023-04-23T03:57:54;11.10;1.00
11132;DHT22;5620;53.570;9.718;2023-04-23T04:00:21;11.10;1.00
11132;DHT22;5620;53.570;9.718;2023-04-23T04:02:46;11.10;1.00
11132;DHT22;5620;53.570;9.718;2023-04-23T04:05:12;11.10;1.00
11132;DHT22;5620;53.570;9.718;2023-04-23T04:07:38;11.10;99.90
11132;DHT22;5620;53.570;9.718;2023-04-23T04:10:05;11.10;99.90
11132;DHT22;5620;53.570;9.718;2023-04-23T04:12:32;11.10;99.90
11132;DHT22;5620;53.570;9.718;2023-04-23T04:14:58;11.10;99.90
11132;DHT22;5620;53.570;9.718;2023-04-23T04:17:25;11.10;99.90
11132;DHT22;5620;53.570;9.718;2023-04-23T04:19:55;11.00;99.90
11132;DHT22;5620;53.570;9.718;2023-04-23T04:22:21;10.90;99.90
11132;DHT22;5620;53.570;9.718;2023-04-23T04:24:48;10.90;99.90
11132;DHT22;5620;53.570;9.718;2023-04-23T04:27:17;10.80;99.90
11132;DHT22;5620;53.570;9.718;2023-04-23T04:29:42;10.80;99.90
11132;DHT22;5620;53.570;9.718;2023-04-23T04:32:09;10.80;99.90
11132;DHT22;5620;53.570;9.718;2023-04-23T04:34:34;10.80;99.90
11132;DHT22;5620;53.570;9.718;2023-04-23T04:37:03;10.70;99.90
11132;DHT22;5620;53.570;9.718;2023-04-23T04:39:31;10.70;99.90
11132;DHT22;5620;53.570;9.718;2023-04-23T04:41:58;10.70;99.90
11132;DHT22;5620;53.570;9.718;2023-04-23T04:44:25;10.60;99.90
11132;DHT22;5620;53.570;9.718;2023-04-23T04:46:51;10.60;99.90
11132;DHT22;5620;53.570;9.718;2023-04-23T04:49:18;10.70;99.90
11132;DHT22;5620;53.570;9.718;2023-04-23T04:51:44;10.70;99.90
11132;DHT22;5620;53.570;9.718;2023-04-23T04:54:10;10.80;97.50
11132;DHT22;5620;53.570;9.718;2023-04-23T04:56:38;10.80;82.90
11132;DHT22;5620;53.570;9.718;2023-04-23T04:59:06;10.90;1.00
11132;DHT22;5620;53.570;9.718;2023-04-23T05:01:33;10.90;1.00
11132;DHT22;5620;53.570;9.718;2023-04-23T05:03:59;11.00;1.00
11132;DHT22;5620;53.570;9.718;2023-04-23T05:06:25;11.00;1.00
11132;DHT22;5620;53.570;9.718;2023-04-23T05:08:52;11.10;1.00
11132;DHT22;5620;53.570;9.718;2023-04-23T05:11:20;11.10;1.00
11132;DHT22;5620;53.570;9.718;2023-04-23T05:13:48;11.20;1.00
11132;DHT22;5620;53.570;9.718;2023-04-23T05:16:14;11.20;99.90
11132;DHT22;5620;53.570;9.718;2023-04-23T05:18:40;11.30;99.90
11132;DHT22;5620;53.570;9.718;2023-04-23T05:21:07;11.40;99.90
11132;DHT22;5620;53.570;9.718;2023-04-23T05:23:34;11.40;99.90
11132;DHT22;5620;53.570;9.718;2023-04-23T05:26:03;11.50;99.90
11132;DHT22;5620;53.570;9.718;2023-04-23T05:28:29;11.60;99.90
11132;DHT22;5620;53.570;9.718;2023-04-23T05:30:55;11.60;99.90
11132;DHT22;5620;53.570;9.718;2023-04-23T05:33:22;11.80;63.80
11132;DHT22;5620;53.570;9.718;2023-04-23T05:35:48;11.80;1.00
11132;DHT22;5620;53.570;9.718;2023-04-23T05:38:15;11.90;1.00
11132;DHT22;5620;53.570;9.718;2023-04-23T05:40:40;11.80;1.00
11132;DHT22;5620;53.570;9.718;2023-04-23T05:43:07;11.90;1.00
11132;DHT22;5620;53.570;9.718;2023-04-23T05:45:34;11.80;1.00
11132;DHT22;5620;53.570;9.718;2023-04-23T05:48:01;11.80;99.90
11132;DHT22;5620;53.570;9.718;2023-04-23T05:50:26;11.70;99.90
11132;DHT22;5620;53.570;9.718;2023-04-23T05:52:53;11.70;99.90
11132;DHT22;5620;53.570;9.718;2023-04-23T05:55:20;11.70;99.90
11132;DHT22;5620;53.570;9.718;2023-04-23T05:57:46;11.70;99.90
11132;DHT22;5620;53.570;9.718;2023-04-23T06:00:14;11.70;99.90
11132;DHT22;5620;53.570;9.718;2023-04-23T06:02:40;11.80;99.90
11132;DHT22;5620;53.570;9.718;2023-04-23T06:05:06;11.80;99.90
11132;DHT22;5620;53.570;9.718;2023-04-23T06:07:33;11.90;99.90
11132;DHT22;5620;53.570;9.718;2023-04-23T06:09:59;12.00;99.90
11132;DHT22;5620;53.570;9.718;2023-04-23T06:12:26;12.20;99.90
11132;DHT22;5620;53.570;9.718;2023-04-23T06:14:53;12.50;99.90
11132;DHT22;5620;53.570;9.718;2023-04-23T06:17:20;12.80;92.90
11132;DHT22;5620;53.570;9.718;2023-04-23T06:19:46;13.10;7.90
11132;DHT22;5620;53.570;9.718;2023-04-23T06:22:13;13.20;1.00
11132;DHT22;5620;53.570;9.718;2023-04-23T06:24:40;13.30;1.00
11132;DHT22;5620;53.570;9.718;2023-04-23T06:27:05;13.30;1.00
11132;DHT22;5620;53.570;9.718;2023-04-23T06:29:32;13.40;99.90
11132;DHT22;5620;53.570;9.718;2023-04-23T06:32:03;13.30;99.90
11132;DHT22;5620;53.570;9.718;2023-04-23T06:34:30;13.20;99.90
11132;DHT22;5620;53.570;9.718;2023-04-23T06:36:56;13.20;99.90
11132;DHT22;5620;53.570;9.718;2023-04-23T06:39:24;13.20;99.90
11132;DHT22;5620;53.570;9.718;2023-04-23T06:41:50;13.40;99.90
11132;DHT22;5620;53.570;9.718;2023-04-23T06:44:15;13.60;99.90
11132;DHT22;5620;53.570;9.718;2023-04-23T06:46:42;13.80;99.90
11132;DHT22;5620;53.570;9.718;2023-04-23T06:49:08;14.10;99.90
11132;DHT22;5620;53.570;9.718;2023-04-23T06:51:35;14.40;99.90
11132;DHT22;5620;53.570;9.718;2023-04-23T06:54:03;14.70;96.70
11132;DHT22;5620;53.570;9.718;2023-04-23T06:56:31;14.80;1.00
11132;DHT22;5620;53.570;9.718;2023-04-23T06:58:59;14.70;1.00
11132;DHT22;5620;53.570;9.718;2023-04-23T07:01:26;14.70;1.00
11132;DHT22;5620;53.570;9.718;2023-04-23T07:03:54;14.50;1.00
11132;DHT22;5620;53.570;9.718;2023-04-23T07:06:20;14.50;1.00
11132;DHT22;5620;53.570;9.718;2023-04-23T07:08:45;14.30;1.00
11132;DHT22;5620;53.570;9.718;2023-04-23T07:11:13;14.30;1.00
11132;DHT22;5620;53.570;9.718;2023-04-23T07:13:39;14.40;1.00
11132;DHT22;5620;53.570;9.718;2023-04-23T07:16:04;14.40;1.00
11132;DHT22;5620;53.570;9.718;2023-04-23T07:18:31;14.50;1.00
11132;DHT22;5620;53.570;9.718;2023-04-23T07:21:01;14.60;1.00
11132;DHT22;5620;53.570;9.718;2023-04-23T07:23:29;14.70;1.00
11132;DHT22;5620;53.570;9.718;2023-04-23T07:25:54;14.80;99.90
11132;DHT22;5620;53.570;9.718;2023-04-23T07:28:20;14.90;99.90
11132;DHT22;5620;53.570;9.718;2023-04-23T07:30:47;15.10;99.90
11132;DHT22;5620;53.570;9.718;2023-04-23T07:33:12;15.40;99.90
11132;DHT22;5620;53.570;9.718;2023-04-23T07:35:38;15.70;99.90
11132;DHT22;5620;53.570;9.718;2023-04-23T07:38:03;15.60;99.90
11132;DHT22;5620;53.570;9.718;2023-04-23T07:40:30;15.80;99.90
11132;DHT22;5620;53.570;9.718;2023-04-23T07:42:57;15.80;99.90
11132;DHT22;5620;53.570;9.718;2023-04-23T07:45:24;15.80;99.90
11132;DHT22;5620;53.570;9.718;2023-04-23T07:47:49;15.90;99.90
11132;DHT22;5620;53.570;9.718;2023-04-23T07:50:15;15.90;99.90
11132;DHT22;5620;53.570;9.718;2023-04-23T07:52:42;15.80;99.90
11132;DHT22;5620;53.570;9.718;2023-04-23T07:55:09;15.70;99.90
11132;DHT22;5620;53.570;9.718;2023-04-23T07:57:35;15.70;99.90
11132;DHT22;5620;53.570;9.718;2023-04-23T08:00:03;15.70;99.90
11132;DHT22;5620;53.570;9.718;2023-04-23T08:02:30;15.70;99.90
11132;DHT22;5620;53.570;9.718;2023-04-23T08:04:58;15.80;99.90
11132;DHT22;5620;53.570;9.718;2023-04-23T08:07:24;15.90;99.90
11132;DHT22;5620;53.570;9.718;2023-04-23T08:09:50;16.10;99.90
11132;DHT22;5620;53.570;9.718;2023-04-23T08:12:17;16.40;99.90
11132;DHT22;5620;53.570;9.718;2023-04-23T08:14:44;16.80;99.90
11132;DHT22;5620;53.570;9.718;2023-04-23T08:17:11;17.00;99.90
11132;DHT22;5620;53.570;9.718;2023-04-23T08:19:39;17.00;99.90
11132;DHT22;5620;53.570;9.718;2023-04-23T08:22:05;17.20;99.90
11132;DHT22;5620;53.570;9.718;2023-04-23T08:24:36;17.40;99.90
11132;DHT22;5620;53.570;9.718;2023-04-23T08:27:04;17.70;99.90
11132;DHT22;5620;53.570;9.718;2023-04-23T08:29:29;17.90;99.90
11132;DHT22;5620;53.570;9.718;2023-04-23T08:31:55;18.20;97.50
11132;DHT22;5620;53.570;9.718;2023-04-23T08:34:22;18.50;90.60
11132;DHT22;5620;53.570;9.718;2023-04-23T08:36:48;18.50;82.80
11132;DHT22;5620;53.570;9.718;2023-04-23T08:39:15;18.50;75.70
11132;DHT22;5620;53.570;9.718;2023-04-23T08:41:41;18.40;71.90
11132;DHT22;5620;53.570;9.718;2023-04-23T08:47:03;17.90;63.60
11132;DHT22;5620;53.570;9.718;2023-04-23T08:49:32;17.70;61.10
11132;DHT22;5620;53.570;9.718;2023-04-23T08:52:21;17.60;62.50
11132;DHT22;5620;53.570;9.718;2023-04-23T08:54:51;17.70;60.70
11132;DHT22;5620;53.570;9.718;2023-04-23T08:57:18;17.70;60.10
11132;DHT22;5620;53.570;9.718;2023-04-23T08:59:46;17.90;57.10
11132;DHT22;5620;53.570;9.718;2023-04-23T09:02:12;18.00;51.80
11132;DHT22;5620;53.570;9.718;2023-04-23T09:04:40;18.30;45.90
11132;DHT22;5620;53.570;9.718;2023-04-23T09:07:07;18.60;36.50
11132;DHT22;5620;53.570;9.718;2023-04-23T09:09:33;18.80;29.40
11132;DHT22;5620;53.570;9.718;2023-04-23T09:11:59;18.80;24.90
11132;DHT22;5620;53.570;9.718;2023-04-23T09:14:25;18.90;22.60
11132;DHT22;5620;53.570;9.718;2023-04-23T09:16:51;19.00;18.20
11132;DHT22;5620;53.570;9.718;2023-04-23T09:19:19;19.20;15.10
11132;DHT22;5620;53.570;9.718;2023-04-23T09:21:46;19.00;13.10
11132;DHT22;5620;53.570;9.718;2023-04-23T09:24:12;18.80;12.70
11132;DHT22;5620;53.570;9.718;2023-04-23T09:26:45;18.70;13.20
11132;DHT22;5620;53.570;9.718;2023-04-23T09:29:37;18.50;12.50
11132;DHT22;5620;53.570;9.718;2023-04-23T09:32:07;18.70;13.90
11132;DHT22;5620;53.570;9.718;2023-04-23T09:34:36;18.70;12.80
11132;DHT22;5620;53.570;9.718;2023-04-23T09:37:04;18.40;12.70
11132;DHT22;5620;53.570;9.718;2023-04-23T09:39:35;18.10;13.90
11132;DHT22;5620;53.570;9.718;2023-04-23T09:42:06;17.90;15.90
11132;DHT22;5620;53.570;9.718;2023-04-23T09:44:33;17.80;17.60
11132;DHT22;5620;53.570;9.718;2023-04-23T09:47:07;17.70;18.60
11132;DHT22;5620;53.570;9.718;2023-04-23T09:49:45;17.40;19.70
11132;DHT22;5620;53.570;9.718;2023-04-23T09:52:13;17.30;20.90
11132;DHT22;5620;53.570;9.718;2023-04-23T09:54:41;17.30;21.00
11132;DHT22;5620;53.570;9.718;2023-04-23T09:57:12;17.20;20.10
11132;DHT22;5620;53.570;9.718;2023-04-23T09:59:39;17.00;18.70
11132;DHT22;5620;53.570;9.718;2023-04-23T10:02:06;16.90;19.10
11132;DHT22;5620;53.570;9.718;2023-04-23T10:04:36;17.00;19.70
11132;DHT22;5620;53.570;9.718;2023-04-23T10:07:04;17.30;18.80
11132;DHT22;5620;53.570;9.718;2023-04-23T10:09:30;17.40;16.50
11132;DHT22;5620;53.570;9.718;2023-04-23T10:12:00;17.60;14.40
11132;DHT22;5620;53.570;9.718;2023-04-23T10:14:44;17.50;10.80
11132;DHT22;5620;53.570;9.718;2023-04-23T10:17:10;17.40;9.10
11132;DHT22;5620;53.570;9.718;2023-04-23T10:19:37;17.50;8.10
11132;DHT22;5620;53.570;9.718;2023-04-23T10:22:04;17.70;5.90
11132;DHT22;5620;53.570;9.718;2023-04-23T10:24:39;18.00;4.30
11132;DHT22;5620;53.570;9.718;2023-04-23T10:27:10;18.20;1.00
11132;DHT22;5620;53.570;9.718;2023-04-23T10:29:37;18.20;1.00
11132;DHT22;5620;53.570;9.718;2023-04-23T10:32:05;18.50;1.00
11132;DHT22;5620;53.570;9.718;2023-04-23T10:34:33;18.60;1.00
11132;DHT22;5620;53.570;9.718;2023-04-23T10:37:04;18.90;1.00
11132;DHT22;5620;53.570;9.718;2023-04-23T10:39:33;19.30;1.00
11132;DHT22;5620;53.570;9.718;2023-04-23T10:42:00;19.80;1.00
11132;DHT22;5620;53.570;9.718;2023-04-23T10:44:38;20.10;1.00
11132;DHT22;5620;53.570;9.718;2023-04-23T10:47:08;20.40;1.00
11132;DHT22;5620;53.570;9.718;2023-04-23T10:49:38;20.70;1.00
11132;DHT22;5620;53.570;9.718;2023-04-23T10:52:23;21.10;1.00
11132;DHT22;5620;53.570;9.718;2023-04-23T10:54:56;21.30;1.00
11132;DHT22;5620;53.570;9.718;2023-04-23T10:57:23;21.60;1.00
11132;DHT22;5620;53.570;9.718;2023-04-23T10:59:54;22.20;1.00
11132;DHT22;5620;53.570;9.718;2023-04-23T11:02:24;23.30;1.00
11132;DHT22;5620;53.570;9.718;2023-04-23T11:07:37;26.10;1.00
11132;DHT22;5620;53.570;9.718;2023-04-23T11:10:14;28.00;1.00
11132;DHT22;5620;53.570;9.718;2023-04-23T11:12:42;29.60;1.00
11132;DHT22;5620;53.570;9.718;2023-04-23T11:15:14;30.50;1.00
11132;DHT22;5620;53.570;9.718;2023-04-23T11:18:01;31.90;1.00
11132;DHT22;5620;53.570;9.718;2023-04-23T11:20:29;33.40;1.00
11132;DHT22;5620;53.570;9.718;2023-04-23T11:22:54;34.40;1.00
11132;DHT22;5620;53.570;9.718;2023-04-23T11:25:27;34.70;1.00
11132;DHT22;5620;53.570;9.718;2023-04-23T11:27:56;35.00;1.00
11132;DHT22;5620;53.570;9.718;2023-04-23T11:30:24;35.10;1.00
11132;DHT22;5620;53.570;9.718;2023-04-23T11:32:52;35.10;1.00
11132;DHT22;5620;53.570;9.718;2023-04-23T11:35:20;35.10;1.00
11132;DHT22;5620;53.570;9.718;2023-04-23T11:37:46;35.60;1.00
11132;DHT22;5620;53.570;9.718;2023-04-23T11:40:13;36.60;1.00
11132;DHT22;5620;53.570;9.718;2023-04-23T11:42:44;37.30;1.00
11132;DHT22;5620;53.570;9.718;2023-04-23T11:47:45;37.60;1.00
11132;DHT22;5620;53.570;9.718;2023-04-23T11:50:17;38.00;1.00
11132;DHT22;5620;53.570;9.718;2023-04-23T11:52:45;38.50;1.00
11132;DHT22;5620;53.570;9.718;2023-04-23T11:55:12;39.30;1.00
11132;DHT22;5620;53.570;9.718;2023-04-23T11:57:42;39.80;1.00
11132;DHT22;5620;53.570;9.718;2023-04-23T12:00:27;40.20;1.00
11132;DHT22;5620;53.570;9.718;2023-04-23T12:05:43;41.10;1.00
11132;DHT22;5620;53.570;9.718;2023-04-23T12:08:15;41.50;1.00
11132;DHT22;5620;53.570;9.718;2023-04-23T12:15:57;42.10;1.00
11132;DHT22;5620;53.570;9.718;2023-04-23T12:18:42;41.80;1.00
11132;DHT22;5620;53.570;9.718;2023-04-23T12:21:09;40.80;1.00
11132;DHT22;5620;53.570;9.718;2023-04-23T12:23:37;41.20;1.00
11132;DHT22;5620;53.570;9.718;2023-04-23T12:26:08;41.90;1.00
11132;DHT22;5620;53.570;9.718;2023-04-23T12:28:55;43.10;1.00
11132;DHT22;5620;53.570;9.718;2023-04-23T12:31:41;42.40;1.00
11132;DHT22;5620;53.570;9.718;2023-04-23T12:34:09;38.80;1.00
11132;DHT22;5620;53.570;9.718;2023-04-23T12:36:42;36.30;1.00
11132;DHT22;5620;53.570;9.718;2023-04-23T12:39:35;34.90;1.00
11132;DHT22;5620;53.570;9.718;2023-04-23T12:42:04;35.30;1.00
11132;DHT22;5620;53.570;9.718;2023-04-23T12:44:33;35.30;1.00
11132;DHT22;5620;53.570;9.718;2023-04-23T12:47:02;33.80;1.00
11132;DHT22;5620;53.570;9.718;2023-04-23T12:49:28;32.10;1.00
11132;DHT22;5620;53.570;9.718;2023-04-23T12:51:56;30.00;1.00
11132;DHT22;5620;53.570;9.718;2023-04-23T12:54:33;28.90;1.00
11132;DHT22;5620;53.570;9.718;2023-04-23T12:57:00;29.10;1.00
11132;DHT22;5620;53.570;9.718;2023-04-23T12:59:27;28.80;1.00
11132;DHT22;5620;53.570;9.718;2023-04-23T13:01:54;28.30;1.00
11132;DHT22;5620;53.570;9.718;2023-04-23T13:04:20;27.60;1.00
11132;DHT22;5620;53.570;9.718;2023-04-23T13:06:45;27.00;1.00
11132;DHT22;5620;53.570;9.718;2023-04-23T13:09:12;26.60;1.00
11132;DHT22;5620;53.570;9.718;2023-04-23T13:11:40;26.40;1.00
11132;DHT22;5620;53.570;9.718;2023-04-23T13:14:08;26.50;1.00
11132;DHT22;5620;53.570;9.718;2023-04-23T13:16:35;26.60;1.00
11132;DHT22;5620;53.570;9.718;2023-04-23T13:19:01;27.10;1.00
11132;DHT22;5620;53.570;9.718;2023-04-23T13:21:29;27.30;1.00
11132;DHT22;5620;53.570;9.718;2023-04-23T13:23:57;30.30;1.00
11132;DHT22;5620;53.570;9.718;2023-04-23T13:26:26;34.00;1.00
11132;DHT22;5620;53.570;9.718;2023-04-23T13:28:55;36.80;1.00
11132;DHT22;5620;53.570;9.718;2023-04-23T13:31:23;38.50;1.00
11132;DHT22;5620;53.570;9.718;2023-04-23T13:33:49;39.90;1.00
11132;DHT22;5620;53.570;9.718;2023-04-23T13:36:14;40.00;1.00
11132;DHT22;5620;53.570;9.718;2023-04-23T13:38:40;40.10;1.00
11132;DHT22;5620;53.570;9.718;2023-04-23T13:41:07;37.40;1.00
11132;DHT22;5620;53.570;9.718;2023-04-23T13:43:32;36.10;1.00
11132;DHT22;5620;53.570;9.718;2023-04-23T13:46:01;36.60;1.00
11132;DHT22;5620;53.570;9.718;2023-04-23T13:48:29;36.80;1.00
11132;DHT22;5620;53.570;9.718;2023-04-23T13:50:59;37.00;1.00
11132;DHT22;5620;53.570;9.718;2023-04-23T13:53:27;36.60;1.00
11132;DHT22;5620;53.570;9.718;2023-04-23T13:55:57;35.60;1.00
11132;DHT22;5620;53.570;9.718;2023-04-23T13:58:23;34.00;1.00
11132;DHT22;5620;53.570;9.718;2023-04-23T14:00:49;32.20;1.00
11132;DHT22;5620;53.570;9.718;2023-04-23T14:03:15;31.10;1.00
11132;DHT22;5620;53.570;9.718;2023-04-23T14:05:40;29.70;1.00
11132;DHT22;5620;53.570;9.718;2023-04-23T14:08:07;28.10;1.00
11132;DHT22;5620;53.570;9.718;2023-04-23T14:10:33;26.60;1.00
11132;DHT22;5620;53.570;9.718;2023-04-23T14:12:59;25.30;1.00
11132;DHT22;5620;53.570;9.718;2023-04-23T14:15:28;24.20;1.00
11132;DHT22;5620;53.570;9.718;2023-04-23T14:17:54;22.80;1.00
11132;DHT22;5620;53.570;9.718;2023-04-23T14:20:20;20.10;1.00
11132;DHT22;5620;53.570;9.718;2023-04-23T14:22:54;17.80;1.00
11132;DHT22;5620;53.570;9.718;2023-04-23T14:25:39;16.80;1.00
11132;DHT22;5620;53.570;9.718;2023-04-23T14:30:54;17.00;1.00
11132;DHT22;5620;53.570;9.718;2023-04-23T14:33:21;19.00;1.00
11132;DHT22;5620;53.570;9.718;2023-04-23T14:35:47;20.90;1.00
11132;DHT22;5620;53.570;9.718;2023-04-23T14:38:14;22.00;1.00
11132;DHT22;5620;53.570;9.718;2023-04-23T14:40:39;22.60;1.00
11132;DHT22;5620;53.570;9.718;2023-04-23T14:43:08;23.50;1.00
11132;DHT22;5620;53.570;9.718;2023-04-23T14:45:35;24.70;1.00
11132;DHT22;5620;53.570;9.718;2023-04-23T14:48:02;26.20;1.00
11132;DHT22;5620;53.570;9.718;2023-04-23T14:50:30;28.20;1.00
11132;DHT22;5620;53.570;9.718;2023-04-23T14:52:57;30.00;1.00
11132;DHT22;5620;53.570;9.718;2023-04-23T14:55:23;30.70;1.00
11132;DHT22;5620;53.570;9.718;2023-04-23T14:57:50;30.10;1.00
11132;DHT22;5620;53.570;9.718;2023-04-23T15:00:16;29.30;1.00
11132;DHT22;5620;53.570;9.718;2023-04-23T15:02:42;28.80;1.00
11132;DHT22;5620;53.570;9.718;2023-04-23T15:05:08;29.80;1.00
11132;DHT22;5620;53.570;9.718;2023-04-23T15:07:35;31.20;1.00
11132;DHT22;5620;53.570;9.718;2023-04-23T15:10:01;31.60;1.00
11132;DHT22;5620;53.570;9.718;2023-04-23T15:15:06;32.50;1.00
11132;DHT22;5620;53.570;9.718;2023-04-23T15:17:39;34.00;1.00
11132;DHT22;5620;53.570;9.718;2023-04-23T15:20:06;36.00;1.00
11132;DHT22;5620;53.570;9.718;2023-04-23T15:22:33;37.20;1.00
11132;DHT22;5620;53.570;9.718;2023-04-23T15:25:01;37.50;1.00
11132;DHT22;5620;53.570;9.718;2023-04-23T15:27:28;36.90;1.00
11132;DHT22;5620;53.570;9.718;2023-04-23T15:29:55;35.40;1.00
11132;DHT22;5620;53.570;9.718;2023-04-23T15:32:22;34.00;1.00
11132;DHT22;5620;53.570;9.718;2023-04-23T15:34:50;32.70;1.00
11132;DHT22;5620;53.570;9.718;2023-04-23T15:37:17;31.70;1.00
11132;DHT22;5620;53.570;9.718;2023-04-23T15:39:42;31.20;1.00
11132;DHT22;5620;53.570;9.718;2023-04-23T15:42:09;31.00;1.00
11132;DHT22;5620;53.570;9.718;2023-04-23T15:44:36;30.80;1.00
11132;DHT22;5620;53.570;9.718;2023-04-23T15:47:04;30.70;1.00
11132;DHT22;5620;53.570;9.718;2023-04-23T15:49:31;30.90;1.00
11132;DHT22;5620;53.570;9.718;2023-04-23T15:51:58;31.40;1.00
11132;DHT22;5620;53.570;9.718;2023-04-23T15:54:24;31.70;1.00
11132;DHT22;5620;53.570;9.718;2023-04-23T15:56:50;31.50;1.00
11132;DHT22;5620;53.570;9.718;2023-04-23T15:59:17;31.10;1.00
11132;DHT22;5620;53.570;9.718;2023-04-23T16:01:44;31.10;1.00
11132;DHT22;5620;53.570;9.718;2023-04-23T16:04:10;31.50;1.00
11132;DHT22;5620;53.570;9.718;2023-04-23T16:06:36;31.90;1.00
11132;DHT22;5620;53.570;9.718;2023-04-23T16:09:02;31.70;1.00
11132;DHT22;5620;53.570;9.718;2023-04-23T16:11:27;30.70;1.00
11132;DHT22;5620;53.570;9.718;2023-04-23T16:13:54;29.70;1.00
11132;DHT22;5620;53.570;9.718;2023-04-23T16:16:21;29.10;1.00
11132;DHT22;5620;53.570;9.718;2023-04-23T16:18:47;28.40;1.00
11132;DHT22;5620;53.570;9.718;2023-04-23T16:21:14;27.70;1.00